sensor_id;sensor_type;location;lat;lon;timestamp;P1;durP1;ratioP1;P2;durP2;ratioP2
71800;SDS011;59647;55.838;37.292;2023-03-11T00:00:31;7.63;;;3.80;;
71800;SDS011;59647;55.838;37.292;2023-03-11T00:02:59;7.67;;;3.10;;
71800;SDS011;59647;55.838;37.292;2023-03-11T00:05:31;9.23;;;3.73;;
71800;SDS011;59647;55.838;37.292;2023-03-11T00:07:58;6.43;;;3.53;;
71800;SDS011;59647;55.838;37.292;2023-03-11T00:10:29;5.73;;;2.73;;
71800;SDS011;59647;55.838;37.292;2023-03-11T00:12:57;8.80;;;3.73;;
71800;SDS011;59647;55.838;37.292;2023-03-11T00:15:23;7.13;;;3.23;;
71800;SDS011;59647;55.838;37.292;2023-03-11T00:17:50;8.77;;;3.53;;
71800;SDS011;59647;55.838;37.292;2023-03-11T00:20:17;7.67;;;4.17;;
71800;SDS011;59647;55.838;37.292;2023-03-11T00:22:48;7.37;;;3.03;;
71800;SDS011;59647;55.838;37.292;2023-03-11T00:25:15;10.03;;;4.13;;
71800;SDS011;59647;55.838;37.292;2023-03-11T00:27:43;9.60;;;3.50;;
71800;SDS011;59647;55.838;37.292;2023-03-11T00:30:09;6.33;;;2.93;;
71800;SDS011;59647;55.838;37.292;2023-03-11T00:32:36;7.97;;;3.43;;
71800;SDS011;59647;55.838;37.292;2023-03-11T00:35:03;8.63;;;3.53;;
71800;SDS011;59647;55.838;37.292;2023-03-11T00:37:29;9.30;;;4.43;;
71800;SDS011;59647;55.838;37.292;2023-03-11T00:39:57;7.93;;;3.67;;
71800;SDS011;59647;55.838;37.292;2023-03-11T00:42:24;7.57;;;3.40;;
71800;SDS011;59647;55.838;37.292;2023-03-11T00:44:50;6.17;;;3.37;;
71800;SDS011;59647;55.838;37.292;2023-03-11T00:47:16;9.37;;;3.53;;
71800;SDS011;59647;55.838;37.292;2023-03-11T00:49:41;8.03;;;3.90;;
71800;SDS011;59647;55.838;37.292;2023-03-11T00:52:07;7.60;;;3.63;;
71800;SDS011;59647;55.838;37.292;2023-03-11T00:54:33;6.93;;;3.43;;
71800;SDS011;59647;55.838;37.292;2023-03-11T00:56:59;7.63;;;3.40;;
71800;SDS011;59647;55.838;37.292;2023-03-11T00:59:25;11.10;;;3.90;;
71800;SDS011;59647;55.838;37.292;2023-03-11T01:01:51;9.97;;;4.50;;
71800;SDS011;59647;55.838;37.292;2023-03-11T01:04:17;10.43;;;4.17;;
71800;SDS011;59647;55.838;37.292;2023-03-11T01:06:44;6.93;;;3.37;;
71800;SDS011;59647;55.838;37.292;2023-03-11T01:09:10;11.70;;;3.33;;
71800;SDS011;59647;55.838;37.292;2023-03-11T01:11:35;6.77;;;3.73;;
71800;SDS011;59647;55.838;37.292;2023-03-11T01:14:01;9.23;;;3.63;;
71800;SDS011;59647;55.838;37.292;2023-03-11T01:16:28;11.83;;;3.93;;
71800;SDS011;59647;55.838;37.292;2023-03-11T01:18:54;7.80;;;3.67;;
71800;SDS011;59647;55.838;37.292;2023-03-11T01:21:20;9.60;;;3.70;;
71800;SDS011;59647;55.838;37.292;2023-03-11T01:23:46;12.60;;;4.27;;
71800;SDS011;59647;55.838;37.292;2023-03-11T01:26:12;6.47;;;3.73;;
71800;SDS011;59647;55.838;37.292;2023-03-11T01:28:39;8.10;;;3.60;;
71800;SDS011;59647;55.838;37.292;2023-03-11T01:31:05;10.80;;;3.80;;
71800;SDS011;59647;55.838;37.292;2023-03-11T01:33:33;10.37;;;3.97;;
71800;SDS011;59647;55.838;37.292;2023-03-11T01:35:59;8.37;;;3.10;;
71800;SDS011;59647;55.838;37.292;2023-03-11T01:38:26;8.03;;;4.03;;
71800;SDS011;59647;55.838;37.292;2023-03-11T01:40:52;8.03;;;3.53;;
71800;SDS011;59647;55.838;37.292;2023-03-11T01:48:50;11.40;;;4.37;;
71800;SDS011;59647;55.838;37.292;2023-03-11T01:51:27;9.82;;;3.20;;
71800;SDS011;59647;55.838;37.292;2023-03-11T01:54:00;11.60;;;3.83;;
71800;SDS011;59647;55.838;37.292;2023-03-11T01:56:46;8.47;;;3.73;;
71800;SDS011;59647;55.838;37.292;2023-03-11T01:59:15;11.97;;;3.70;;
71800;SDS011;59647;55.838;37.292;2023-03-11T02:04:40;6.17;;;3.00;;
71800;SDS011;59647;55.838;37.292;2023-03-11T02:07:07;7.03;;;3.43;;
71800;SDS011;59647;55.838;37.292;2023-03-11T02:09:34;8.83;;;3.70;;
71800;SDS011;59647;55.838;37.292;2023-03-11T02:12:00;9.23;;;4.13;;
71800;SDS011;59647;55.838;37.292;2023-03-11T02:14:29;9.57;;;3.90;;
71800;SDS011;59647;55.838;37.292;2023-03-11T02:16:55;6.17;;;3.10;;
71800;SDS011;59647;55.838;37.292;2023-03-11T02:22:32;11.07;;;4.30;;
71800;SDS011;59647;55.838;37.292;2023-03-11T02:28:11;13.60;;;3.90;;
71800;SDS011;59647;55.838;37.292;2023-03-11T02:30:40;12.90;;;4.40;;
71800;SDS011;59647;55.838;37.292;2023-03-11T02:33:07;8.20;;;4.30;;
71800;SDS011;59647;55.838;37.292;2023-03-11T02:35:35;17.10;;;4.47;;
71800;SDS011;59647;55.838;37.292;2023-03-11T02:38:01;13.10;;;4.37;;
71800;SDS011;59647;55.838;37.292;2023-03-11T02:40:34;11.03;;;3.90;;
71800;SDS011;59647;55.838;37.292;2023-03-11T02:43:09;14.17;;;4.27;;
71800;SDS011;59647;55.838;37.292;2023-03-11T02:45:39;13.75;;;5.40;;
71800;SDS011;59647;55.838;37.292;2023-03-11T02:48:08;15.47;;;4.77;;
71800;SDS011;59647;55.838;37.292;2023-03-11T02:50:36;9.80;;;4.73;;
71800;SDS011;59647;55.838;37.292;2023-03-11T02:53:04;11.97;;;4.77;;
71800;SDS011;59647;55.838;37.292;2023-03-11T02:55:30;13.50;;;5.50;;
71800;SDS011;59647;55.838;37.292;2023-03-11T02:57:58;10.97;;;5.47;;
71800;SDS011;59647;55.838;37.292;2023-03-11T03:00:24;13.87;;;5.17;;
71800;SDS011;59647;55.838;37.292;2023-03-11T03:02:59;12.03;;;5.00;;
71800;SDS011;59647;55.838;37.292;2023-03-11T03:05:26;12.33;;;5.23;;
71800;SDS011;59647;55.838;37.292;2023-03-11T03:07:52;14.20;;;5.93;;
71800;SDS011;59647;55.838;37.292;2023-03-11T03:10:19;25.07;;;5.43;;
71800;SDS011;59647;55.838;37.292;2023-03-11T03:12:46;17.37;;;6.87;;
71800;SDS011;59647;55.838;37.292;2023-03-11T03:15:12;15.27;;;5.80;;
71800;SDS011;59647;55.838;37.292;2023-03-11T03:17:40;26.30;;;8.67;;
71800;SDS011;59647;55.838;37.292;2023-03-11T03:20:07;14.63;;;7.00;;
71800;SDS011;59647;55.838;37.292;2023-03-11T03:22:40;18.07;;;6.00;;
71800;SDS011;59647;55.838;37.292;2023-03-11T03:25:09;11.67;;;4.50;;
71800;SDS011;59647;55.838;37.292;2023-03-11T03:27:36;13.17;;;5.80;;
71800;SDS011;59647;55.838;37.292;2023-03-11T03:30:04;14.80;;;5.47;;
71800;SDS011;59647;55.838;37.292;2023-03-11T03:32:31;17.90;;;6.27;;
71800;SDS011;59647;55.838;37.292;2023-03-11T03:34:59;16.47;;;5.37;;
71800;SDS011;59647;55.838;37.292;2023-03-11T03:37:40;10.37;;;4.80;;
71800;SDS011;59647;55.838;37.292;2023-03-11T03:40:06;13.10;;;5.97;;
71800;SDS011;59647;55.838;37.292;2023-03-11T03:42:34;11.70;;;4.43;;
71800;SDS011;59647;55.838;37.292;2023-03-11T03:45:02;13.53;;;4.87;;
71800;SDS011;59647;55.838;37.292;2023-03-11T03:47:31;17.40;;;5.47;;
71800;SDS011;59647;55.838;37.292;2023-03-11T03:49:58;13.63;;;5.60;;
71800;SDS011;59647;55.838;37.292;2023-03-11T03:52:24;12.47;;;5.40;;
71800;SDS011;59647;55.838;37.292;2023-03-11T03:54:50;19.63;;;6.57;;
71800;SDS011;59647;55.838;37.292;2023-03-11T03:57:16;15.90;;;7.10;;
71800;SDS011;59647;55.838;37.292;2023-03-11T03:59:45;13.50;;;5.80;;
71800;SDS011;59647;55.838;37.292;2023-03-11T04:02:11;17.87;;;7.37;;
71800;SDS011;59647;55.838;37.292;2023-03-11T04:04:37;17.97;;;6.70;;
71800;SDS011;59647;55.838;37.292;2023-03-11T04:07:03;12.00;;;5.47;;
71800;SDS011;59647;55.838;37.292;2023-03-11T04:09:31;15.53;;;6.30;;
71800;SDS011;59647;55.838;37.292;2023-03-11T04:11:58;15.93;;;6.50;;
71800;SDS011;59647;55.838;37.292;2023-03-11T04:14:25;19.70;;;7.50;;
71800;SDS011;59647;55.838;37.292;2023-03-11T04:16:55;14.63;;;6.70;;
71800;SDS011;59647;55.838;37.292;2023-03-11T04:19:22;15.70;;;7.10;;
71800;SDS011;59647;55.838;37.292;2023-03-11T04:21:48;15.57;;;7.10;;
71800;SDS011;59647;55.838;37.292;2023-03-11T04:24:17;15.80;;;6.53;;
71800;SDS011;59647;55.838;37.292;2023-03-11T04:26:43;13.40;;;6.57;;
71800;SDS011;59647;55.838;37.292;2023-03-11T04:29:14;18.57;;;7.90;;
71800;SDS011;59647;55.838;37.292;2023-03-11T04:31:44;18.13;;;7.63;;
71800;SDS011;59647;55.838;37.292;2023-03-11T04:34:10;16.17;;;6.73;;
71800;SDS011;59647;55.838;37.292;2023-03-11T04:36:37;18.40;;;8.03;;
71800;SDS011;59647;55.838;37.292;2023-03-11T04:39:04;15.83;;;8.67;;
71800;SDS011;59647;55.838;37.292;2023-03-11T04:41:35;17.40;;;7.60;;
71800;SDS011;59647;55.838;37.292;2023-03-11T04:44:01;13.40;;;6.30;;
71800;SDS011;59647;55.838;37.292;2023-03-11T04:46:27;20.67;;;8.97;;
71800;SDS011;59647;55.838;37.292;2023-03-11T04:48:53;18.83;;;9.10;;
71800;SDS011;59647;55.838;37.292;2023-03-11T04:51:19;23.13;;;10.20;;
71800;SDS011;59647;55.838;37.292;2023-03-11T04:53:45;20.57;;;10.57;;
71800;SDS011;59647;55.838;37.292;2023-03-11T04:56:11;25.23;;;11.03;;
71800;SDS011;59647;55.838;37.292;2023-03-11T04:58:37;22.80;;;10.30;;
71800;SDS011;59647;55.838;37.292;2023-03-11T05:01:04;22.03;;;11.23;;
71800;SDS011;59647;55.838;37.292;2023-03-11T05:03:30;27.17;;;13.40;;
71800;SDS011;59647;55.838;37.292;2023-03-11T05:05:56;25.50;;;12.27;;
71800;SDS011;59647;55.838;37.292;2023-03-11T05:08:22;22.57;;;11.17;;
71800;SDS011;59647;55.838;37.292;2023-03-11T05:10:49;22.37;;;10.70;;
71800;SDS011;59647;55.838;37.292;2023-03-11T05:13:18;22.07;;;11.73;;
71800;SDS011;59647;55.838;37.292;2023-03-11T05:15:46;23.53;;;11.10;;
71800;SDS011;59647;55.838;37.292;2023-03-11T05:18:12;22.20;;;11.20;;
71800;SDS011;59647;55.838;37.292;2023-03-11T05:20:38;20.50;;;10.20;;
71800;SDS011;59647;55.838;37.292;2023-03-11T05:23:05;35.77;;;12.00;;
71800;SDS011;59647;55.838;37.292;2023-03-11T05:25:33;23.07;;;10.17;;
71800;SDS011;59647;55.838;37.292;2023-03-11T05:28:00;21.70;;;9.77;;
71800;SDS011;59647;55.838;37.292;2023-03-11T05:30:27;22.80;;;10.47;;
71800;SDS011;59647;55.838;37.292;2023-03-11T05:32:53;19.43;;;9.07;;
71800;SDS011;59647;55.838;37.292;2023-03-11T05:35:21;18.23;;;9.17;;
71800;SDS011;59647;55.838;37.292;2023-03-11T05:37:47;21.50;;;9.23;;
71800;SDS011;59647;55.838;37.292;2023-03-11T05:40:15;15.23;;;7.60;;
71800;SDS011;59647;55.838;37.292;2023-03-11T05:42:41;16.10;;;7.93;;
71800;SDS011;59647;55.838;37.292;2023-03-11T05:45:08;18.23;;;8.50;;
71800;SDS011;59647;55.838;37.292;2023-03-11T05:47:36;14.67;;;7.93;;
71800;SDS011;59647;55.838;37.292;2023-03-11T05:50:03;14.53;;;8.10;;
71800;SDS011;59647;55.838;37.292;2023-03-11T05:52:30;15.83;;;7.17;;
71800;SDS011;59647;55.838;37.292;2023-03-11T05:54:58;21.47;;;8.03;;
71800;SDS011;59647;55.838;37.292;2023-03-11T05:57:28;19.13;;;6.97;;
71800;SDS011;59647;55.838;37.292;2023-03-11T05:59:55;22.30;;;7.03;;
71800;SDS011;59647;55.838;37.292;2023-03-11T06:02:21;14.97;;;7.27;;
71800;SDS011;59647;55.838;37.292;2023-03-11T06:04:48;22.53;;;7.73;;
71800;SDS011;59647;55.838;37.292;2023-03-11T06:07:14;19.27;;;8.67;;
71800;SDS011;59647;55.838;37.292;2023-03-11T06:09:43;18.17;;;7.53;;
71800;SDS011;59647;55.838;37.292;2023-03-11T06:12:13;15.43;;;6.77;;
71800;SDS011;59647;55.838;37.292;2023-03-11T06:14:52;20.60;;;7.23;;
71800;SDS011;59647;55.838;37.292;2023-03-11T06:17:18;20.03;;;7.63;;
71800;SDS011;59647;55.838;37.292;2023-03-11T06:19:44;17.13;;;7.53;;
71800;SDS011;59647;55.838;37.292;2023-03-11T06:22:10;18.30;;;7.37;;
71800;SDS011;59647;55.838;37.292;2023-03-11T06:24:36;17.00;;;7.30;;
71800;SDS011;59647;55.838;37.292;2023-03-11T06:27:03;19.27;;;8.70;;
71800;SDS011;59647;55.838;37.292;2023-03-11T06:29:29;13.47;;;6.33;;
71800;SDS011;59647;55.838;37.292;2023-03-11T06:31:55;13.53;;;5.77;;
71800;SDS011;59647;55.838;37.292;2023-03-11T06:34:21;15.97;;;8.27;;
71800;SDS011;59647;55.838;37.292;2023-03-11T06:36:49;12.37;;;7.20;;
71800;SDS011;59647;55.838;37.292;2023-03-11T06:39:15;18.90;;;8.07;;
71800;SDS011;59647;55.838;37.292;2023-03-11T06:41:44;11.73;;;6.43;;
71800;SDS011;59647;55.838;37.292;2023-03-11T06:44:11;15.20;;;6.40;;
71800;SDS011;59647;55.838;37.292;2023-03-11T06:46:38;15.30;;;7.53;;
71800;SDS011;59647;55.838;37.292;2023-03-11T06:49:05;18.30;;;7.30;;
71800;SDS011;59647;55.838;37.292;2023-03-11T06:51:32;17.20;;;8.50;;
71800;SDS011;59647;55.838;37.292;2023-03-11T06:54:00;16.47;;;6.70;;
71800;SDS011;59647;55.838;37.292;2023-03-11T06:56:27;12.67;;;6.77;;
71800;SDS011;59647;55.838;37.292;2023-03-11T06:58:57;15.40;;;7.03;;
71800;SDS011;59647;55.838;37.292;2023-03-11T07:01:28;16.10;;;8.10;;
71800;SDS011;59647;55.838;37.292;2023-03-11T07:03:56;20.80;;;9.23;;
71800;SDS011;59647;55.838;37.292;2023-03-11T07:06:23;16.83;;;8.10;;
71800;SDS011;59647;55.838;37.292;2023-03-11T07:08:57;16.35;;;7.82;;
71800;SDS011;59647;55.838;37.292;2023-03-11T07:11:23;18.70;;;6.97;;
71800;SDS011;59647;55.838;37.292;2023-03-11T07:13:55;10.40;;;4.80;;
71800;SDS011;59647;55.838;37.292;2023-03-11T07:16:23;12.47;;;7.20;;
71800;SDS011;59647;55.838;37.292;2023-03-11T07:18:54;17.13;;;8.47;;
71800;SDS011;59647;55.838;37.292;2023-03-11T07:21:23;15.70;;;7.03;;
71800;SDS011;59647;55.838;37.292;2023-03-11T07:23:56;19.13;;;8.23;;
71800;SDS011;59647;55.838;37.292;2023-03-11T07:26:24;22.00;;;7.95;;
71800;SDS011;59647;55.838;37.292;2023-03-11T07:28:52;17.17;;;8.63;;
71800;SDS011;59647;55.838;37.292;2023-03-11T07:31:20;18.93;;;7.70;;
71800;SDS011;59647;55.838;37.292;2023-03-11T07:33:47;15.77;;;7.93;;
71800;SDS011;59647;55.838;37.292;2023-03-11T07:36:15;21.93;;;6.80;;
71800;SDS011;59647;55.838;37.292;2023-03-11T07:38:43;18.87;;;7.80;;
71800;SDS011;59647;55.838;37.292;2023-03-11T07:41:10;19.73;;;7.80;;
71800;SDS011;59647;55.838;37.292;2023-03-11T07:43:37;17.50;;;7.07;;
71800;SDS011;59647;55.838;37.292;2023-03-11T07:46:07;17.23;;;7.67;;
71800;SDS011;59647;55.838;37.292;2023-03-11T07:48:35;17.97;;;7.67;;
71800;SDS011;59647;55.838;37.292;2023-03-11T07:51:03;12.60;;;5.43;;
71800;SDS011;59647;55.838;37.292;2023-03-11T07:53:37;16.20;;;8.20;;
71800;SDS011;59647;55.838;37.292;2023-03-11T07:56:05;17.33;;;7.40;;
71800;SDS011;59647;55.838;37.292;2023-03-11T07:58:32;18.67;;;5.80;;
71800;SDS011;59647;55.838;37.292;2023-03-11T08:01:10;12.67;;;6.23;;
71800;SDS011;59647;55.838;37.292;2023-03-11T08:03:37;13.00;;;7.43;;
71800;SDS011;59647;55.838;37.292;2023-03-11T08:08:40;12.03;;;5.17;;
71800;SDS011;59647;55.838;37.292;2023-03-11T08:11:06;11.70;;;5.20;;
71800;SDS011;59647;55.838;37.292;2023-03-11T08:13:32;10.63;;;5.90;;
71800;SDS011;59647;55.838;37.292;2023-03-11T08:15:58;10.07;;;5.67;;
71800;SDS011;59647;55.838;37.292;2023-03-11T08:18:27;10.77;;;5.17;;
71800;SDS011;59647;55.838;37.292;2023-03-11T08:20:53;14.40;;;6.60;;
71800;SDS011;59647;55.838;37.292;2023-03-11T08:23:19;11.30;;;5.63;;
71800;SDS011;59647;55.838;37.292;2023-03-11T08:25:45;12.47;;;5.80;;
71800;SDS011;59647;55.838;37.292;2023-03-11T08:28:11;9.20;;;5.03;;
71800;SDS011;59647;55.838;37.292;2023-03-11T08:30:37;13.33;;;6.13;;
71800;SDS011;59647;55.838;37.292;2023-03-11T08:33:03;9.57;;;5.53;;
71800;SDS011;59647;55.838;37.292;2023-03-11T08:35:29;10.83;;;5.57;;
71800;SDS011;59647;55.838;37.292;2023-03-11T08:37:56;9.63;;;5.87;;
71800;SDS011;59647;55.838;37.292;2023-03-11T08:40:22;12.20;;;4.80;;
71800;SDS011;59647;55.838;37.292;2023-03-11T08:42:48;9.77;;;5.13;;
71800;SDS011;59647;55.838;37.292;2023-03-11T08:45:14;13.13;;;6.63;;
71800;SDS011;59647;55.838;37.292;2023-03-11T08:47:40;15.03;;;5.53;;
71800;SDS011;59647;55.838;37.292;2023-03-11T08:50:11;9.23;;;4.40;;
71800;SDS011;59647;55.838;37.292;2023-03-11T08:52:38;5.57;;;2.90;;
71800;SDS011;59647;55.838;37.292;2023-03-11T08:55:05;10.00;;;4.73;;
71800;SDS011;59647;55.838;37.292;2023-03-11T08:57:33;9.70;;;4.93;;
71800;SDS011;59647;55.838;37.292;2023-03-11T08:59:59;9.73;;;5.00;;
71800;SDS011;59647;55.838;37.292;2023-03-11T09:02:25;10.97;;;4.60;;
71800;SDS011;59647;55.838;37.292;2023-03-11T09:04:51;8.20;;;4.47;;
71800;SDS011;59647;55.838;37.292;2023-03-11T09:07:17;10.93;;;4.90;;
71800;SDS011;59647;55.838;37.292;2023-03-11T09:09:43;8.67;;;4.23;;
71800;SDS011;59647;55.838;37.292;2023-03-11T09:12:09;14.10;;;4.83;;
71800;SDS011;59647;55.838;37.292;2023-03-11T09:14:41;10.20;;;4.30;;
71800;SDS011;59647;55.838;37.292;2023-03-11T09:17:08;11.23;;;4.83;;
71800;SDS011;59647;55.838;37.292;2023-03-11T09:19:36;8.40;;;3.70;;
71800;SDS011;59647;55.838;37.292;2023-03-11T09:22:02;9.70;;;4.80;;
71800;SDS011;59647;55.838;37.292;2023-03-11T09:24:31;9.53;;;4.77;;
71800;SDS011;59647;55.838;37.292;2023-03-11T09:26:58;9.80;;;5.07;;
71800;SDS011;59647;55.838;37.292;2023-03-11T09:29:24;8.70;;;4.73;;
71800;SDS011;59647;55.838;37.292;2023-03-11T09:31:50;11.23;;;5.23;;
71800;SDS011;59647;55.838;37.292;2023-03-11T09:34:15;12.40;;;4.57;;
71800;SDS011;59647;55.838;37.292;2023-03-11T09:36:41;10.77;;;5.97;;
71800;SDS011;59647;55.838;37.292;2023-03-11T09:39:08;12.57;;;6.47;;
71800;SDS011;59647;55.838;37.292;2023-03-11T09:44:13;12.73;;;6.10;;
71800;SDS011;59647;55.838;37.292;2023-03-11T09:52:09;9.55;;;4.35;;
71800;SDS011;59647;55.838;37.292;2023-03-11T09:54:47;10.83;;;5.67;;
71800;SDS011;59647;55.838;37.292;2023-03-11T09:57:18;9.37;;;4.47;;
71800;SDS011;59647;55.838;37.292;2023-03-11T09:59:48;11.63;;;5.20;;
71800;SDS011;59647;55.838;37.292;2023-03-11T10:02:16;12.73;;;4.97;;
71800;SDS011;59647;55.838;37.292;2023-03-11T10:04:49;14.50;;;4.70;;
71800;SDS011;59647;55.838;37.292;2023-03-11T10:07:24;9.87;;;3.97;;
71800;SDS011;59647;55.838;37.292;2023-03-11T10:10:04;9.47;;;4.77;;
71800;SDS011;59647;55.838;37.292;2023-03-11T10:12:38;10.00;;;4.40;;
71800;SDS011;59647;55.838;37.292;2023-03-11T10:34:04;8.00;;;4.53;;
71800;SDS011;59647;55.838;37.292;2023-03-11T10:36:45;9.27;;;4.60;;
71800;SDS011;59647;55.838;37.292;2023-03-11T10:39:14;10.20;;;4.53;;
71800;SDS011;59647;55.838;37.292;2023-03-11T10:41:43;11.67;;;5.43;;
71800;SDS011;59647;55.838;37.292;2023-03-11T10:44:16;6.67;;;4.10;;
71800;SDS011;59647;55.838;37.292;2023-03-11T10:46:48;7.27;;;4.63;;
71800;SDS011;59647;55.838;37.292;2023-03-11T10:49:17;8.47;;;4.40;;
71800;SDS011;59647;55.838;37.292;2023-03-11T10:51:44;10.40;;;5.13;;
71800;SDS011;59647;55.838;37.292;2023-03-11T10:56:59;10.40;;;4.38;;
71800;SDS011;59647;55.838;37.292;2023-03-11T14:55:25;20.60;;;8.43;;
71800;SDS011;59647;55.838;37.292;2023-03-11T14:58:01;13.87;;;6.83;;
71800;SDS011;59647;55.838;37.292;2023-03-11T15:00:36;18.90;;;8.07;;
71800;SDS011;59647;55.838;37.292;2023-03-11T15:05:48;20.63;;;8.57;;
71800;SDS011;59647;55.838;37.292;2023-03-11T15:08:21;20.07;;;9.23;;
71800;SDS011;59647;55.838;37.292;2023-03-11T15:11:00;33.67;;;9.57;;
71800;SDS011;59647;55.838;37.292;2023-03-11T15:13:27;25.20;;;8.93;;
71800;SDS011;59647;55.838;37.292;2023-03-11T15:15:57;23.43;;;9.03;;
71800;SDS011;59647;55.838;37.292;2023-03-11T15:18:30;19.10;;;8.27;;
71800;SDS011;59647;55.838;37.292;2023-03-11T15:23:32;15.07;;;7.57;;
71800;SDS011;59647;55.838;37.292;2023-03-11T15:25:59;20.43;;;9.17;;
71800;SDS011;59647;55.838;37.292;2023-03-11T15:28:30;19.30;;;8.53;;
71800;SDS011;59647;55.838;37.292;2023-03-11T15:31:23;21.90;;;9.63;;
71800;SDS011;59647;55.838;37.292;2023-03-11T15:34:06;21.77;;;7.87;;
71800;SDS011;59647;55.838;37.292;2023-03-11T15:42:10;22.77;;;8.27;;
71800;SDS011;59647;55.838;37.292;2023-03-11T15:44:56;15.20;;;8.47;;
71800;SDS011;59647;55.838;37.292;2023-03-11T15:47:26;19.67;;;8.70;;
71800;SDS011;59647;55.838;37.292;2023-03-11T15:49:52;14.50;;;6.60;;
71800;SDS011;59647;55.838;37.292;2023-03-11T15:52:19;19.37;;;8.33;;
71800;SDS011;59647;55.838;37.292;2023-03-11T15:54:45;15.03;;;7.73;;
71800;SDS011;59647;55.838;37.292;2023-03-11T15:57:24;15.13;;;6.77;;
71800;SDS011;59647;55.838;37.292;2023-03-11T15:59:52;18.13;;;8.27;;
71800;SDS011;59647;55.838;37.292;2023-03-11T16:02:25;17.40;;;7.23;;
71800;SDS011;59647;55.838;37.292;2023-03-11T16:04:52;19.53;;;8.23;;
71800;SDS011;59647;55.838;37.292;2023-03-11T16:07:19;19.43;;;8.60;;
71800;SDS011;59647;55.838;37.292;2023-03-11T16:09:45;19.27;;;7.67;;
71800;SDS011;59647;55.838;37.292;2023-03-11T16:12:21;18.27;;;7.70;;
71800;SDS011;59647;55.838;37.292;2023-03-11T16:14:48;20.47;;;8.37;;
71800;SDS011;59647;55.838;37.292;2023-03-11T16:17:14;18.67;;;7.87;;
71800;SDS011;59647;55.838;37.292;2023-03-11T16:19:43;20.63;;;9.47;;
71800;SDS011;59647;55.838;37.292;2023-03-11T16:22:16;17.67;;;7.17;;
71800;SDS011;59647;55.838;37.292;2023-03-11T16:24:45;23.40;;;10.20;;
71800;SDS011;59647;55.838;37.292;2023-03-11T16:27:14;17.50;;;7.93;;
71800;SDS011;59647;55.838;37.292;2023-03-11T16:29:42;21.40;;;8.93;;
71800;SDS011;59647;55.838;37.292;2023-03-11T16:32:09;21.17;;;8.67;;
71800;SDS011;59647;55.838;37.292;2023-03-11T16:34:36;18.00;;;8.10;;
71800;SDS011;59647;55.838;37.292;2023-03-11T16:37:03;22.70;;;7.87;;
71800;SDS011;59647;55.838;37.292;2023-03-11T16:39:30;17.33;;;7.57;;
71800;SDS011;59647;55.838;37.292;2023-03-11T16:41:56;17.70;;;7.30;;
71800;SDS011;59647;55.838;37.292;2023-03-11T16:44:22;30.93;;;11.07;;
71800;SDS011;59647;55.838;37.292;2023-03-11T16:46:48;23.17;;;10.63;;
71800;SDS011;59647;55.838;37.292;2023-03-11T16:49:14;17.33;;;7.17;;
71800;SDS011;59647;55.838;37.292;2023-03-11T16:51:40;21.53;;;7.70;;
71800;SDS011;59647;55.838;37.292;2023-03-11T16:54:05;20.20;;;8.60;;
71800;SDS011;59647;55.838;37.292;2023-03-11T16:56:31;22.57;;;9.53;;
71800;SDS011;59647;55.838;37.292;2023-03-11T16:58:59;25.50;;;9.70;;
71800;SDS011;59647;55.838;37.292;2023-03-11T17:01:25;21.37;;;9.90;;
71800;SDS011;59647;55.838;37.292;2023-03-11T17:03:51;21.40;;;8.60;;
71800;SDS011;59647;55.838;37.292;2023-03-11T17:06:17;25.87;;;9.80;;
71800;SDS011;59647;55.838;37.292;2023-03-11T17:08:44;25.03;;;11.07;;
71800;SDS011;59647;55.838;37.292;2023-03-11T17:11:14;25.37;;;10.67;;
71800;SDS011;59647;55.838;37.292;2023-03-11T17:13:42;23.00;;;10.10;;
71800;SDS011;59647;55.838;37.292;2023-03-11T17:16:08;22.63;;;9.00;;
71800;SDS011;59647;55.838;37.292;2023-03-11T17:18:34;16.93;;;8.33;;
71800;SDS011;59647;55.838;37.292;2023-03-11T17:21:03;18.27;;;7.83;;
71800;SDS011;59647;55.838;37.292;2023-03-11T17:23:30;22.23;;;10.93;;
71800;SDS011;59647;55.838;37.292;2023-03-11T17:25:56;20.80;;;9.83;;
71800;SDS011;59647;55.838;37.292;2023-03-11T17:28:22;27.47;;;11.20;;
71800;SDS011;59647;55.838;37.292;2023-03-11T17:30:48;24.13;;;9.37;;
71800;SDS011;59647;55.838;37.292;2023-03-11T17:33:15;16.93;;;8.53;;
71800;SDS011;59647;55.838;37.292;2023-03-11T17:35:40;19.07;;;8.17;;
71800;SDS011;59647;55.838;37.292;2023-03-11T17:38:06;20.20;;;8.47;;
71800;SDS011;59647;55.838;37.292;2023-03-11T17:40:32;23.03;;;9.77;;
71800;SDS011;59647;55.838;37.292;2023-03-11T17:42:58;18.77;;;8.37;;
71800;SDS011;59647;55.838;37.292;2023-03-11T17:45:24;21.07;;;9.43;;
71800;SDS011;59647;55.838;37.292;2023-03-11T17:47:50;18.70;;;8.87;;
71800;SDS011;59647;55.838;37.292;2023-03-11T17:50:16;20.57;;;8.93;;
71800;SDS011;59647;55.838;37.292;2023-03-11T17:52:42;21.40;;;8.40;;
71800;SDS011;59647;55.838;37.292;2023-03-11T17:55:10;22.20;;;9.47;;
71800;SDS011;59647;55.838;37.292;2023-03-11T17:57:37;19.50;;;9.80;;
71800;SDS011;59647;55.838;37.292;2023-03-11T18:00:03;27.50;;;9.47;;
71800;SDS011;59647;55.838;37.292;2023-03-11T18:02:30;19.43;;;8.77;;
71800;SDS011;59647;55.838;37.292;2023-03-11T18:04:56;21.07;;;8.73;;
71800;SDS011;59647;55.838;37.292;2023-03-11T18:07:22;21.50;;;7.87;;
71800;SDS011;59647;55.838;37.292;2023-03-11T18:09:50;22.27;;;9.43;;
71800;SDS011;59647;55.838;37.292;2023-03-11T18:12:17;18.90;;;8.00;;
71800;SDS011;59647;55.838;37.292;2023-03-11T18:14:44;25.03;;;9.33;;
71800;SDS011;59647;55.838;37.292;2023-03-11T18:17:10;16.43;;;7.20;;
71800;SDS011;59647;55.838;37.292;2023-03-11T18:19:35;19.70;;;7.90;;
71800;SDS011;59647;55.838;37.292;2023-03-11T18:22:01;24.17;;;11.03;;
71800;SDS011;59647;55.838;37.292;2023-03-11T18:24:28;21.00;;;9.63;;
71800;SDS011;59647;55.838;37.292;2023-03-11T18:26:53;18.73;;;8.57;;
71800;SDS011;59647;55.838;37.292;2023-03-11T18:29:19;19.53;;;8.67;;
71800;SDS011;59647;55.838;37.292;2023-03-11T18:31:45;21.97;;;9.07;;
71800;SDS011;59647;55.838;37.292;2023-03-11T18:34:11;19.20;;;8.97;;
71800;SDS011;59647;55.838;37.292;2023-03-11T18:36:38;23.60;;;8.83;;
71800;SDS011;59647;55.838;37.292;2023-03-11T18:39:05;23.57;;;9.80;;
71800;SDS011;59647;55.838;37.292;2023-03-11T18:41:33;23.93;;;9.50;;
71800;SDS011;59647;55.838;37.292;2023-03-11T18:43:59;23.53;;;10.77;;
71800;SDS011;59647;55.838;37.292;2023-03-11T18:46:26;19.87;;;7.97;;
71800;SDS011;59647;55.838;37.292;2023-03-11T18:48:56;25.53;;;11.30;;
71800;SDS011;59647;55.838;37.292;2023-03-11T18:51:23;19.37;;;8.60;;
71800;SDS011;59647;55.838;37.292;2023-03-11T18:53:50;25.63;;;10.73;;
71800;SDS011;59647;55.838;37.292;2023-03-11T18:56:16;21.00;;;9.73;;
71800;SDS011;59647;55.838;37.292;2023-03-11T18:58:43;18.80;;;10.30;;
71800;SDS011;59647;55.838;37.292;2023-03-11T19:01:13;27.40;;;10.83;;
71800;SDS011;59647;55.838;37.292;2023-03-11T19:03:41;23.03;;;9.37;;
71800;SDS011;59647;55.838;37.292;2023-03-11T19:06:08;19.60;;;9.87;;
71800;SDS011;59647;55.838;37.292;2023-03-11T19:08:35;23.97;;;8.97;;
71800;SDS011;59647;55.838;37.292;2023-03-11T19:11:08;24.93;;;10.60;;
71800;SDS011;59647;55.838;37.292;2023-03-11T19:13:35;24.52;;;10.45;;
71800;SDS011;59647;55.838;37.292;2023-03-11T19:16:03;26.73;;;10.40;;
71800;SDS011;59647;55.838;37.292;2023-03-11T19:18:30;22.27;;;9.83;;
71800;SDS011;59647;55.838;37.292;2023-03-11T19:20:57;26.40;;;11.70;;